Pagrindinis puslapis
METAR-TAF:

METAR-TAF

Oro uostai :

Konija, Turkija

platuma: 37-58N, ilguma: 032-33E, Aukštis: 1032 m

Dabartinis oras

Ataskaita buvo paskelbta 52 minutes, ne 10:50 UTC
Vėjas 5 kt iš Pietų/Pietvakarių, svyruoja nuo Pietų ir Vakarų/Šiaurės Vakarų
Temperatūra -4°C
Drėgmė 74%
Slėgis 1006 hPa
Matomumas 10 km arba daugiau
Išsisklaidę debesys ne aukštis 3000 ft
Su prošvaistėmis ne aukštis 9000 ft

METAR: LTAN 231050Z 21005KT 190V290 9999 SCT030 BKN090 M04/M08 Q1006 NOSIG

Laikas: 14:42 (11:42 UTC)

Prognozė

Ataskaita buvo paskelbta 1 valandą ir 2 minutes, ne 10:40 UTC
Prognozė galioja nuo 23 metu 12 UTC su 23 metu 21 UTC
Vėjas 8 kt iš Šiaurės/Šiaurės Vakarų
Matomumas: 7000 m
Išsisklaidę debesys ne aukštis 3500 ft
Su prošvaistėmis ne aukštis 9000 ft
sniegas

TAF: LTAN 231040Z 2312/2321 34008KT 7000 -SN SCT035 BKN090

Orai ataskaitas ir orų prognozės (METAR, TAF).

turimą stotys yra geltonos ir raudonos taškus žemėlapyje.

Perkelti pele per norėdami pamatyti stoties vardą.

Tada spustelėkite, norėdami matyti oro stebėjimo ir prognozės.

Norėdami pakeisti žemėlapį: spustelėkite ant žalios mygtukų su juodo kryžiaus žemyn,; žalią mygtuką su brūkšneliu, jei norite nutolinti; arba žalių rodyklių gretimoms žemėlapius.


METAR-TAF: